createdAt,value
2023-03-10T00:00:40.120Z,26.25
2023-03-10T00:03:06.812Z,26.23
2023-03-10T00:05:33.887Z,26.52
2023-03-10T00:08:00.746Z,26.48
2023-03-10T00:10:27.488Z,25.40
2023-03-10T00:12:54.212Z,27.45
2023-03-10T00:15:20.816Z,25.73
2023-03-10T00:17:50.155Z,25.92
2023-03-10T00:20:16.838Z,26.60
2023-03-10T00:22:43.557Z,24.63
2023-03-10T00:25:11.032Z,26.77
2023-03-10T00:27:37.699Z,24.17
2023-03-10T00:30:05.078Z,23.40
2023-03-10T00:32:31.715Z,24.33
2023-03-10T00:34:58.389Z,22.13
2023-03-10T00:37:25.050Z,23.00
2023-03-10T00:39:53.085Z,22.50
2023-03-10T00:42:20.315Z,23.20
2023-03-10T00:44:47.434Z,21.17
2023-03-10T00:47:14.180Z,22.45
2023-03-10T00:49:40.883Z,23.52
2023-03-10T00:52:07.510Z,20.98
2023-03-10T00:54:34.144Z,21.60
2023-03-10T00:57:00.940Z,22.10
2023-03-10T00:59:29.610Z,23.95
2023-03-10T01:01:59.543Z,22.27
2023-03-10T01:04:26.425Z,24.60
2023-03-10T01:06:53.071Z,24.33
2023-03-10T01:09:19.789Z,25.10
2023-03-10T01:11:46.498Z,23.05
2023-03-10T01:14:15.699Z,23.92
2023-03-10T01:16:42.510Z,25.07
2023-03-10T01:19:09.393Z,24.25
2023-03-10T01:21:38.570Z,24.42
2023-03-10T01:24:06.828Z,25.23
2023-03-10T01:26:33.861Z,23.83
2023-03-10T01:29:00.499Z,24.13
2023-03-10T01:31:27.435Z,25.33
2023-03-10T01:33:54.956Z,26.55
2023-03-10T01:36:26.039Z,27.33
2023-03-10T01:38:54.547Z,26.58
2023-03-10T01:41:22.565Z,27.02
2023-03-10T01:43:51.701Z,25.85
2023-03-10T01:46:27.297Z,25.70
2023-03-10T01:48:56.917Z,27.50
2023-03-10T01:51:24.280Z,27.33
2023-03-10T01:53:51.365Z,27.08
2023-03-10T01:56:18.148Z,27.08
2023-03-10T01:58:46.672Z,26.58
2023-03-10T02:01:14.703Z,26.95
2023-03-10T02:03:48.156Z,27.10
2023-03-10T02:06:19.443Z,25.98
2023-03-10T02:08:51.220Z,25.25
2023-03-10T02:11:19.785Z,24.85
2023-03-10T02:13:46.721Z,25.30
2023-03-10T02:16:14.191Z,24.13
2023-03-10T02:18:44.191Z,23.52
2023-03-10T02:21:49.615Z,24.00
2023-03-10T02:24:54.338Z,23.98
2023-03-10T02:27:24.907Z,25.15
2023-03-10T02:30:09.472Z,27.13
2023-03-10T02:32:42.219Z,26.30
2023-03-10T02:35:09.834Z,26.85
2023-03-10T02:37:37.253Z,27.58
2023-03-10T02:40:25.424Z,25.98
2023-03-10T02:42:52.443Z,26.75
2023-03-10T02:45:19.061Z,26.05
2023-03-10T02:47:45.665Z,27.23
2023-03-10T02:50:14.717Z,27.70
2023-03-10T02:52:58.479Z,27.48
2023-03-10T02:55:25.178Z,25.70
2023-03-10T02:57:51.766Z,25.27
2023-03-10T03:00:18.524Z,26.40
2023-03-10T03:02:45.248Z,25.48
2023-03-10T03:05:11.857Z,25.77
2023-03-10T03:07:38.482Z,24.38
2023-03-10T03:10:05.709Z,22.77
2023-03-10T03:12:32.315Z,24.48
2023-03-10T03:14:59.178Z,21.85
2023-03-10T03:17:25.826Z,22.92
2023-03-10T03:19:52.420Z,21.80
2023-03-10T03:22:19.003Z,21.27
2023-03-10T03:24:45.693Z,21.55
2023-03-10T03:27:12.329Z,21.40
2023-03-10T03:29:38.988Z,20.63
2023-03-10T03:32:06.248Z,19.02
2023-03-10T03:34:32.953Z,19.77
2023-03-10T03:36:59.609Z,17.83
2023-03-10T03:39:26.338Z,19.23
2023-03-10T03:41:55.188Z,19.58
2023-03-10T03:44:21.802Z,18.23
2023-03-10T03:46:48.469Z,19.48
2023-03-10T03:49:15.093Z,18.02
2023-03-10T03:51:41.676Z,17.42
2023-03-10T03:54:08.392Z,17.15
2023-03-10T03:56:35.084Z,17.67
2023-03-10T03:59:01.704Z,15.63
2023-03-10T04:01:28.357Z,16.75
2023-03-10T04:03:55.184Z,16.90
2023-03-10T04:06:21.977Z,16.42
2023-03-10T04:08:51.410Z,16.85
2023-03-10T04:11:18.020Z,16.10
2023-03-10T04:13:44.661Z,17.00
2023-03-10T04:16:11.590Z,17.77
2023-03-10T04:18:38.331Z,17.52
2023-03-10T04:21:05.209Z,16.33
2023-03-10T04:23:31.863Z,16.38
2023-03-10T04:25:58.614Z,16.17
2023-03-10T04:28:25.851Z,17.23
2023-03-10T04:30:52.559Z,15.13
2023-03-10T04:33:19.281Z,16.48
2023-03-10T04:35:48.841Z,16.05
2023-03-10T04:38:15.626Z,15.45
2023-03-10T04:40:42.382Z,16.17
2023-03-10T04:43:09.011Z,16.67
2023-03-10T04:45:35.721Z,16.90
2023-03-10T04:48:02.360Z,15.88
2023-03-10T04:50:29.152Z,15.63
2023-03-10T04:52:56.210Z,15.85
2023-03-10T04:55:22.948Z,15.95
2023-03-10T04:57:49.643Z,15.93
2023-03-10T05:00:16.654Z,16.73
2023-03-10T05:02:43.363Z,16.25
2023-03-10T05:05:10.640Z,16.08
2023-03-10T05:07:37.307Z,15.00
2023-03-10T05:10:04.466Z,15.38
2023-03-10T05:12:31.119Z,15.02
2023-03-10T05:14:57.801Z,15.20
2023-03-10T05:17:24.610Z,14.27
2023-03-10T05:19:51.359Z,14.05
2023-03-10T05:22:17.964Z,14.27
2023-03-10T05:24:44.858Z,14.75
2023-03-10T05:27:11.574Z,14.90
2023-03-10T05:29:39.237Z,14.15
2023-03-10T05:32:06.446Z,13.75
2023-03-10T05:34:33.230Z,14.65
2023-03-10T05:36:59.913Z,14.50
2023-03-10T05:39:26.593Z,13.70
2023-03-10T05:41:53.258Z,15.00
2023-03-10T05:44:19.917Z,14.45
2023-03-10T05:46:46.714Z,14.57
2023-03-10T05:49:13.392Z,14.27
2023-03-10T05:51:40.048Z,14.52
2023-03-10T05:54:06.931Z,14.65
2023-03-10T05:56:33.728Z,14.10
2023-03-10T05:59:00.483Z,14.43
2023-03-10T06:01:27.256Z,15.68
2023-03-10T06:03:54.008Z,15.38
2023-03-10T06:06:20.771Z,14.85
2023-03-10T06:08:47.485Z,15.32
2023-03-10T06:11:14.287Z,16.63
2023-03-10T06:13:40.974Z,16.20
2023-03-10T06:16:07.873Z,18.17
2023-03-10T06:18:34.918Z,17.88
2023-03-10T06:21:08.603Z,17.35
2023-03-10T06:23:35.961Z,19.30
2023-03-10T06:26:06.884Z,17.75
2023-03-10T06:28:36.797Z,17.33
2023-03-10T06:31:11.706Z,16.25
2023-03-10T06:33:38.555Z,16.60
2023-03-10T06:36:05.649Z,16.38
2023-03-10T06:38:32.369Z,16.17
2023-03-10T06:41:00.182Z,14.10
2023-03-10T06:43:26.941Z,13.77
2023-03-10T06:45:53.613Z,14.50
2023-03-10T06:48:21.727Z,13.05
2023-03-10T06:50:48.717Z,13.32
2023-03-10T06:53:17.406Z,12.57
2023-03-10T06:55:44.280Z,13.13
2023-03-10T06:58:11.385Z,14.68
2023-03-10T07:00:39.703Z,13.65
2023-03-10T07:03:06.718Z,13.63
2023-03-10T07:05:33.485Z,13.00
2023-03-10T07:08:00.114Z,13.55
2023-03-10T07:10:26.759Z,13.65
2023-03-10T07:12:56.635Z,14.10
2023-03-10T07:15:23.458Z,14.82
2023-03-10T07:17:50.351Z,14.48
2023-03-10T07:20:17.998Z,14.13
2023-03-10T07:22:44.723Z,13.30
2023-03-10T07:25:11.953Z,13.88
2023-03-10T07:27:38.744Z,12.25
2023-03-10T07:30:06.743Z,13.70
2023-03-10T07:32:33.446Z,13.63
2023-03-10T07:35:00.270Z,13.20
2023-03-10T07:37:26.867Z,13.18
2023-03-10T07:39:56.470Z,13.52
2023-03-10T07:42:23.258Z,12.77
2023-03-10T07:44:50.180Z,12.40
2023-03-10T07:47:16.840Z,12.13
2023-03-10T07:49:46.726Z,11.95
2023-03-10T07:52:15.074Z,11.68
2023-03-10T07:54:41.964Z,11.90
2023-03-10T07:57:08.602Z,12.75
2023-03-10T07:59:35.679Z,11.40
2023-03-10T08:02:02.578Z,11.40
2023-03-10T08:04:29.381Z,12.10
2023-03-10T08:06:56.598Z,12.00
2023-03-10T08:09:23.183Z,11.48
2023-03-10T08:11:49.781Z,11.57
2023-03-10T08:14:20.914Z,11.68
2023-03-10T08:16:47.670Z,10.93
2023-03-10T08:19:14.345Z,11.15
2023-03-10T08:21:41.151Z,10.88
2023-03-10T08:24:07.869Z,11.43
2023-03-10T08:26:34.577Z,12.00
2023-03-10T08:29:01.359Z,12.18
2023-03-10T08:31:28.134Z,12.57
2023-03-10T08:33:56.900Z,12.70
2023-03-10T08:36:25.707Z,11.70
2023-03-10T08:38:54.017Z,13.00
2023-03-10T08:41:24.252Z,12.30
2023-03-10T08:46:20.725Z,12.10
2023-03-10T08:48:47.686Z,11.85
2023-03-10T08:51:16.134Z,12.63
2023-03-10T08:53:44.669Z,12.95
2023-03-10T08:56:11.384Z,12.82
2023-03-10T08:58:38.235Z,13.25
2023-03-10T09:01:05.309Z,13.82
2023-03-10T09:03:34.763Z,13.90
2023-03-10T09:06:01.552Z,13.18
2023-03-10T09:08:28.150Z,13.43
2023-03-10T09:10:55.130Z,13.00
2023-03-10T09:13:22.001Z,14.20
2023-03-10T09:15:50.464Z,13.18
2023-03-10T09:18:17.557Z,11.90
2023-03-10T09:20:44.702Z,13.10
2023-03-10T09:23:13.579Z,12.38
2023-03-10T09:25:40.466Z,12.45
2023-03-10T09:28:11.006Z,12.75
2023-03-10T09:30:40.823Z,12.27
2023-03-10T09:33:13.373Z,12.55
2023-03-10T09:35:41.911Z,11.70
2023-03-10T09:38:12.957Z,12.45
2023-03-10T09:40:44.572Z,12.68
2023-03-10T09:43:21.813Z,11.02
2023-03-10T09:46:05.193Z,12.23
2023-03-10T09:48:50.437Z,11.93
2023-03-10T09:51:22.825Z,12.15
2023-03-10T09:54:12.339Z,12.57
2023-03-10T09:56:39.071Z,11.50
2023-03-10T09:59:14.693Z,12.95
2023-03-10T10:01:44.954Z,12.73
2023-03-10T10:04:26.987Z,11.90
2023-03-10T10:06:56.244Z,11.07
2023-03-10T10:09:53.225Z,11.33
2023-03-10T10:12:23.839Z,10.68
2023-03-10T10:15:00.015Z,12.30
2023-03-10T10:17:53.771Z,12.07
2023-03-10T10:20:28.747Z,13.07
2023-03-10T10:22:55.447Z,11.07
2023-03-10T10:25:27.198Z,12.10
2023-03-10T10:27:55.867Z,12.75
2023-03-10T10:30:36.488Z,12.30
2023-03-10T10:33:09.339Z,11.95
2023-03-10T10:35:39.234Z,12.50
2023-03-10T10:38:11.899Z,11.93
2023-03-10T10:40:59.186Z,11.82
2023-03-10T10:43:25.916Z,11.63
2023-03-10T10:45:55.535Z,10.02
2023-03-10T10:48:50.906Z,11.18
2023-03-10T10:51:29.715Z,11.35
2023-03-10T10:54:20.233Z,12.02
2023-03-10T10:56:55.424Z,13.82
2023-03-10T10:59:32.006Z,13.32
2023-03-10T11:02:01.272Z,16.73
2023-03-10T11:04:40.876Z,14.40
2023-03-10T11:07:20.023Z,14.23
2023-03-10T11:09:47.961Z,13.63
2023-03-10T11:12:31.234Z,13.48
2023-03-10T11:15:08.831Z,12.77
2023-03-10T11:17:46.755Z,13.10
2023-03-10T11:20:24.404Z,10.90
2023-03-10T11:23:09.219Z,11.45
2023-03-10T11:25:46.222Z,11.65
2023-03-10T11:28:49.335Z,12.45
2023-03-10T11:31:54.699Z,12.77
2023-03-10T11:34:30.655Z,14.85
2023-03-10T11:37:31.477Z,15.90
2023-03-10T11:40:21.505Z,14.73
2023-03-10T11:43:01.289Z,14.38
2023-03-10T11:45:52.976Z,14.93
2023-03-10T11:48:48.792Z,15.70
2023-03-10T11:51:29.956Z,16.55
2023-03-10T11:54:05.089Z,16.55
2023-03-10T11:56:31.956Z,16.48
2023-03-10T11:59:27.894Z,15.88
2023-03-10T12:02:07.410Z,17.30
2023-03-10T12:04:56.519Z,17.25
2023-03-10T12:07:43.180Z,17.75
2023-03-10T12:10:12.781Z,17.52
2023-03-10T12:12:41.829Z,18.13
2023-03-10T12:15:22.619Z,17.88
2023-03-10T12:17:50.464Z,17.52
2023-03-10T12:20:17.409Z,17.67
2023-03-10T12:22:52.034Z,17.58
2023-03-10T12:25:27.940Z,17.85
2023-03-10T12:28:28.416Z,19.02
2023-03-10T12:30:59.473Z,19.95
2023-03-10T12:33:37.571Z,18.25
2023-03-10T12:36:16.088Z,19.08
2023-03-10T12:38:53.912Z,19.40
2023-03-10T12:41:26.582Z,18.48
2023-03-10T12:43:57.609Z,18.17
2023-03-10T12:46:30.408Z,18.75
2023-03-10T12:49:23.565Z,17.17
2023-03-10T12:51:58.524Z,17.92
2023-03-10T12:54:51.343Z,17.65
2023-03-10T12:57:30.809Z,16.60
2023-03-10T13:00:06.807Z,18.15
2023-03-10T13:02:47.637Z,17.33
2023-03-10T13:05:33.073Z,15.18
2023-03-10T13:08:12.266Z,14.25
2023-03-10T13:10:39.666Z,12.73
2023-03-10T13:13:08.953Z,13.35
2023-03-10T13:15:36.432Z,12.70
2023-03-10T13:18:11.230Z,13.45
2023-03-10T13:20:38.132Z,15.18
2023-03-10T13:23:04.983Z,12.48
2023-03-10T13:25:36.605Z,11.50
2023-03-10T13:28:11.189Z,7.47
2023-03-10T13:30:37.977Z,7.18
2023-03-10T13:33:05.046Z,7.63
2023-03-10T13:35:39.304Z,7.45
2023-03-10T13:38:26.379Z,8.23
2023-03-10T13:41:02.165Z,11.35
2023-03-10T13:43:34.950Z,11.98
2023-03-10T13:46:03.144Z,12.75
2023-03-10T13:48:31.976Z,12.23
2023-03-10T13:51:16.189Z,12.27
2023-03-10T13:53:43.231Z,10.52
2023-03-10T13:56:27.269Z,11.45
2023-03-10T13:58:58.107Z,9.88
2023-03-10T14:01:31.892Z,8.48
2023-03-10T14:04:08.657Z,9.02
2023-03-10T14:06:36.620Z,9.35
2023-03-10T14:09:20.539Z,10.05
2023-03-10T14:11:51.004Z,9.20
2023-03-10T14:14:32.176Z,8.40
2023-03-10T14:17:01.917Z,8.80
2023-03-10T14:19:45.237Z,10.10
2023-03-10T14:22:22.562Z,8.93
2023-03-10T14:24:49.385Z,9.50
2023-03-10T14:27:16.290Z,8.75
2023-03-10T14:29:50.101Z,9.55
2023-03-10T14:32:18.028Z,8.65
2023-03-10T14:34:45.049Z,9.40
2023-03-10T14:37:11.684Z,8.80
2023-03-10T14:39:38.331Z,8.57
2023-03-10T14:42:05.330Z,9.25
2023-03-10T14:44:32.564Z,9.02
2023-03-10T14:46:59.663Z,8.57
2023-03-10T14:49:27.674Z,7.85
2023-03-10T14:51:54.400Z,7.85
2023-03-10T14:54:23.746Z,8.93
2023-03-10T14:56:58.869Z,8.30
2023-03-10T14:59:30.335Z,7.63
2023-03-10T15:01:59.367Z,7.93
2023-03-10T15:04:26.193Z,8.02
2023-03-10T15:06:53.078Z,7.45
2023-03-10T15:09:19.878Z,7.85
2023-03-10T15:11:46.613Z,7.30
2023-03-10T15:14:18.892Z,6.68
2023-03-10T15:16:45.692Z,6.85
2023-03-10T15:19:24.464Z,6.90
2023-03-10T15:21:51.515Z,7.90
2023-03-10T15:24:18.622Z,7.63
2023-03-10T15:26:45.925Z,7.45
2023-03-10T15:29:19.628Z,7.32
2023-03-10T15:31:46.805Z,8.75
2023-03-10T15:34:13.705Z,8.93
2023-03-10T15:36:40.663Z,7.88
2023-03-10T15:39:07.317Z,9.25
2023-03-10T15:41:38.488Z,8.43
2023-03-10T15:44:07.334Z,10.60
2023-03-10T15:46:34.075Z,9.13
2023-03-10T15:49:03.091Z,9.32
2023-03-10T15:51:29.787Z,10.10
2023-03-10T15:53:56.403Z,9.00
2023-03-10T15:56:23.119Z,10.23
2023-03-10T15:58:50.032Z,9.88
2023-03-10T16:01:19.829Z,9.00
2023-03-10T16:03:48.352Z,10.10
2023-03-10T16:06:15.894Z,9.38
2023-03-10T16:08:42.684Z,10.35
2023-03-10T16:11:17.638Z,10.35
2023-03-10T16:13:46.598Z,9.73
2023-03-10T16:16:13.637Z,10.38
2023-03-10T16:18:40.277Z,11.15
2023-03-10T16:21:07.033Z,11.30
2023-03-10T16:23:33.764Z,10.55
2023-03-10T16:26:23.507Z,12.25
2023-03-10T16:28:55.481Z,14.57
2023-03-10T16:31:24.535Z,14.35
2023-03-10T16:33:51.742Z,16.98
2023-03-10T16:36:21.251Z,15.52
2023-03-10T16:38:48.323Z,17.50
2023-03-10T16:41:15.256Z,17.85
2023-03-10T16:43:42.866Z,17.98
2023-03-10T16:46:12.892Z,18.15
2023-03-10T16:48:43.295Z,18.33
2023-03-10T16:51:23.021Z,19.67
2023-03-10T16:53:49.935Z,18.10
2023-03-10T16:56:16.676Z,17.13
2023-03-10T16:58:43.357Z,17.65
2023-03-10T17:01:10.280Z,18.35
2023-03-10T17:03:39.527Z,17.23
2023-03-10T17:06:12.159Z,18.63
2023-03-10T17:08:40.081Z,18.38
2023-03-10T17:11:07.960Z,18.15
2023-03-10T17:13:34.898Z,18.05
2023-03-10T17:16:01.558Z,18.65
2023-03-10T17:18:28.181Z,18.02
2023-03-10T17:20:55.027Z,19.30
2023-03-10T17:23:23.658Z,18.05
2023-03-10T17:25:50.465Z,18.77
2023-03-10T17:28:17.194Z,21.02
2023-03-10T17:30:44.013Z,20.10
2023-03-10T17:33:10.672Z,21.77
2023-03-10T17:35:38.179Z,19.55
2023-03-10T17:38:04.797Z,18.98
2023-03-10T17:40:31.495Z,19.00
2023-03-10T17:43:08.394Z,18.73
2023-03-10T17:45:39.692Z,16.25
2023-03-10T17:48:06.544Z,18.02
2023-03-10T17:50:33.621Z,18.55
2023-03-10T17:53:00.265Z,18.95
2023-03-10T17:55:26.943Z,20.98
2023-03-10T17:57:53.563Z,21.52
2023-03-10T18:00:20.623Z,22.65
2023-03-10T18:02:47.660Z,24.27
2023-03-10T18:05:14.382Z,24.88
2023-03-10T18:07:40.981Z,24.92
2023-03-10T18:10:08.631Z,26.40
2023-03-10T18:12:35.303Z,26.83
2023-03-10T18:15:01.926Z,24.83
2023-03-10T18:17:29.230Z,24.73
2023-03-10T18:19:55.980Z,23.80
2023-03-10T18:22:22.949Z,24.52
2023-03-10T18:24:49.710Z,24.45
2023-03-10T18:27:16.446Z,25.15
2023-03-10T18:29:43.111Z,26.08
2023-03-10T18:32:09.739Z,23.85
2023-03-10T18:34:36.378Z,24.55
2023-03-10T18:37:03.090Z,24.98
2023-03-10T18:39:29.805Z,25.00
2023-03-10T18:41:57.555Z,24.52
2023-03-10T18:44:24.181Z,24.25
2023-03-10T18:46:50.988Z,20.80
2023-03-10T18:49:17.622Z,20.92
2023-03-10T18:51:44.315Z,20.35
2023-03-10T18:54:10.949Z,22.13
2023-03-10T18:56:37.749Z,22.27
2023-03-10T18:59:04.535Z,21.02
2023-03-10T19:01:31.189Z,22.08
2023-03-10T19:03:57.855Z,21.92
2023-03-10T19:06:29.983Z,21.75
2023-03-10T19:08:56.641Z,20.00
2023-03-10T19:11:24.558Z,21.20
2023-03-10T19:13:51.467Z,21.38
2023-03-10T19:16:18.245Z,19.15
2023-03-10T19:18:45.044Z,21.58
2023-03-10T19:21:13.001Z,20.85
2023-03-10T19:23:41.473Z,21.10
2023-03-10T19:26:09.114Z,20.63
2023-03-10T19:28:36.141Z,21.23
2023-03-10T19:31:11.882Z,21.35
2023-03-10T19:33:39.796Z,20.63
2023-03-10T19:36:11.699Z,21.10
2023-03-10T19:38:39.842Z,22.00
2023-03-10T19:41:10.927Z,22.02
2023-03-10T19:43:37.509Z,21.98
2023-03-10T19:46:06.514Z,22.52
2023-03-10T19:48:33.231Z,24.33
2023-03-10T19:51:00.841Z,24.27
2023-03-10T19:53:29.183Z,24.15
2023-03-10T19:55:57.741Z,25.15
2023-03-10T19:58:25.071Z,24.92
2023-03-10T20:00:57.636Z,24.38
2023-03-10T20:03:27.226Z,24.60
2023-03-10T20:05:54.902Z,24.38
2023-03-10T20:08:22.082Z,24.08
2023-03-10T20:10:48.760Z,23.88
2023-03-10T20:13:15.869Z,24.48
2023-03-10T20:15:42.510Z,25.65
2023-03-10T20:18:09.195Z,26.33
2023-03-10T20:20:35.782Z,25.85
2023-03-10T20:23:02.694Z,25.98
2023-03-10T20:25:29.416Z,24.50
2023-03-10T20:27:56.162Z,26.58
2023-03-10T20:30:27.740Z,26.30
2023-03-10T20:32:55.746Z,24.80
2023-03-10T20:35:23.065Z,25.48
2023-03-10T20:37:49.986Z,24.65
2023-03-10T20:40:22.952Z,24.55
2023-03-10T20:42:51.201Z,24.73
2023-03-10T20:45:18.422Z,23.48
2023-03-10T20:47:45.301Z,23.77
2023-03-10T20:50:12.767Z,23.83
2023-03-10T20:52:44.428Z,23.52
2023-03-10T20:55:26.290Z,23.35
2023-03-10T20:57:55.210Z,24.95
2023-03-10T21:00:25.044Z,24.70
2023-03-10T21:02:53.366Z,24.13
2023-03-10T21:05:21.000Z,22.40
2023-03-10T21:07:47.795Z,22.92
2023-03-10T21:10:15.653Z,20.92
2023-03-10T21:12:45.622Z,21.88
2023-03-10T21:15:15.820Z,21.00
2023-03-10T21:20:10.638Z,19.80
2023-03-10T21:22:39.152Z,20.92
2023-03-10T21:25:08.040Z,20.15
2023-03-10T21:27:35.632Z,19.23
2023-03-10T21:30:05.370Z,20.08
2023-03-10T21:32:33.021Z,18.02
2023-03-10T21:34:59.780Z,19.05
2023-03-10T21:37:26.434Z,19.13
2023-03-10T21:39:53.892Z,19.42
2023-03-10T21:42:20.596Z,19.35
2023-03-10T21:44:48.537Z,18.42
2023-03-10T21:47:15.207Z,18.20
2023-03-10T21:49:41.875Z,19.00
2023-03-10T21:52:11.199Z,19.08
2023-03-10T21:54:37.865Z,17.00
2023-03-10T21:57:04.488Z,18.40
2023-03-10T21:59:31.205Z,17.58
2023-03-10T22:01:57.868Z,17.25
2023-03-10T22:04:24.699Z,17.27
2023-03-10T22:06:51.401Z,17.40
2023-03-10T22:09:18.078Z,16.88
2023-03-10T22:11:44.697Z,17.40
2023-03-10T22:14:11.442Z,16.83
2023-03-10T22:16:38.153Z,18.45
2023-03-10T22:19:04.785Z,17.67
2023-03-10T22:21:31.462Z,17.05
2023-03-10T22:23:59.878Z,19.25
2023-03-10T22:26:26.775Z,20.58
2023-03-10T22:28:53.398Z,17.60
2023-03-10T22:31:22.130Z,19.02
2023-03-10T22:33:48.966Z,18.15
2023-03-10T22:36:15.751Z,17.60
2023-03-10T22:38:42.545Z,18.92
2023-03-10T22:41:13.035Z,18.98
2023-03-10T22:43:40.089Z,19.33
2023-03-10T22:46:12.574Z,18.85
2023-03-10T22:48:39.895Z,18.80
2023-03-10T22:51:08.475Z,19.42
2023-03-10T22:53:37.862Z,18.50
2023-03-10T22:56:05.542Z,16.90
2023-03-10T22:58:32.339Z,17.85
2023-03-10T23:00:58.993Z,16.55
2023-03-10T23:03:26.012Z,17.35
2023-03-10T23:05:52.698Z,16.83
2023-03-10T23:08:19.620Z,16.40
2023-03-10T23:10:46.339Z,15.93
2023-03-10T23:13:15.388Z,15.80
2023-03-10T23:15:43.138Z,15.48
2023-03-10T23:18:10.256Z,15.23
2023-03-10T23:20:48.355Z,14.55
2023-03-10T23:23:16.395Z,13.60
2023-03-10T23:25:47.146Z,13.57
2023-03-10T23:28:15.206Z,15.48
2023-03-10T23:30:44.043Z,14.77
2023-03-10T23:33:19.832Z,14.82
2023-03-10T23:35:50.230Z,12.70
2023-03-10T23:38:16.922Z,13.85
2023-03-10T23:40:43.547Z,13.77
2023-03-10T23:43:11.779Z,13.52
2023-03-10T23:45:40.122Z,12.23
2023-03-10T23:48:12.019Z,13.63
2023-03-10T23:50:41.866Z,12.70
2023-03-10T23:53:10.261Z,13.20
2023-03-10T23:55:39.808Z,13.15
2023-03-10T23:58:07.305Z,12.77
